sensor_id;sensor_type;location;lat;lon;timestamp;P1;durP1;ratioP1;P2;durP2;ratioP2
69551;SDS011;63774;45.292;11.784;2023-07-22T00:00:17;2.10;;;1.20;;
69551;SDS011;63774;45.292;11.784;2023-07-22T00:02:42;2.00;;;1.20;;
69551;SDS011;63774;45.292;11.784;2023-07-22T00:05:08;1.90;;;1.10;;
69551;SDS011;63774;45.292;11.784;2023-07-22T00:07:35;3.80;;;1.30;;
69551;SDS011;63774;45.292;11.784;2023-07-22T00:10:01;3.60;;;1.10;;
69551;SDS011;63774;45.292;11.784;2023-07-22T00:12:26;3.20;;;1.20;;
69551;SDS011;63774;45.292;11.784;2023-07-22T00:14:52;3.00;;;1.40;;
69551;SDS011;63774;45.292;11.784;2023-07-22T00:17:20;1.80;;;1.30;;
69551;SDS011;63774;45.292;11.784;2023-07-22T00:19:46;2.70;;;1.20;;
69551;SDS011;63774;45.292;11.784;2023-07-22T00:22:13;1.60;;;1.20;;
69551;SDS011;63774;45.292;11.784;2023-07-22T00:24:40;2.40;;;1.20;;
69551;SDS011;63774;45.292;11.784;2023-07-22T00:27:06;2.80;;;1.40;;
69551;SDS011;63774;45.292;11.784;2023-07-22T00:29:34;1.90;;;1.10;;
69551;SDS011;63774;45.292;11.784;2023-07-22T00:32:00;2.10;;;1.30;;
69551;SDS011;63774;45.292;11.784;2023-07-22T00:34:25;3.00;;;1.20;;
69551;SDS011;63774;45.292;11.784;2023-07-22T00:36:51;2.70;;;1.20;;
69551;SDS011;63774;45.292;11.784;2023-07-22T00:39:17;2.90;;;1.10;;
69551;SDS011;63774;45.292;11.784;2023-07-22T00:41:43;2.50;;;1.20;;
69551;SDS011;63774;45.292;11.784;2023-07-22T00:44:09;1.70;;;1.00;;
69551;SDS011;63774;45.292;11.784;2023-07-22T00:46:36;1.80;;;1.10;;
69551;SDS011;63774;45.292;11.784;2023-07-22T00:49:01;1.50;;;1.10;;
69551;SDS011;63774;45.292;11.784;2023-07-22T00:51:27;2.70;;;1.20;;
69551;SDS011;63774;45.292;11.784;2023-07-22T00:53:53;2.00;;;1.30;;
69551;SDS011;63774;45.292;11.784;2023-07-22T00:56:18;2.40;;;1.10;;
69551;SDS011;63774;45.292;11.784;2023-07-22T00:58:44;2.10;;;1.10;;
69551;SDS011;63774;45.292;11.784;2023-07-22T01:01:10;2.90;;;1.30;;
69551;SDS011;63774;45.292;11.784;2023-07-22T01:03:35;2.20;;;1.20;;
69551;SDS011;63774;45.292;11.784;2023-07-22T01:06:01;2.30;;;1.30;;
69551;SDS011;63774;45.292;11.784;2023-07-22T01:08:27;1.50;;;1.00;;
69551;SDS011;63774;45.292;11.784;2023-07-22T01:10:52;2.40;;;1.20;;
69551;SDS011;63774;45.292;11.784;2023-07-22T01:13:18;1.30;;;1.00;;
69551;SDS011;63774;45.292;11.784;2023-07-22T01:15:44;2.40;;;1.30;;
69551;SDS011;63774;45.292;11.784;2023-07-22T01:18:10;1.90;;;1.00;;
69551;SDS011;63774;45.292;11.784;2023-07-22T01:20:36;3.90;;;1.10;;
69551;SDS011;63774;45.292;11.784;2023-07-22T01:23:02;2.70;;;1.10;;
69551;SDS011;63774;45.292;11.784;2023-07-22T01:25:28;1.70;;;1.10;;
69551;SDS011;63774;45.292;11.784;2023-07-22T01:27:54;2.00;;;1.20;;
69551;SDS011;63774;45.292;11.784;2023-07-22T01:30:20;1.60;;;1.20;;
69551;SDS011;63774;45.292;11.784;2023-07-22T01:32:49;1.90;;;1.10;;
69551;SDS011;63774;45.292;11.784;2023-07-22T01:35:15;2.10;;;1.00;;
69551;SDS011;63774;45.292;11.784;2023-07-22T01:37:41;2.30;;;1.00;;
69551;SDS011;63774;45.292;11.784;2023-07-22T01:40:06;1.90;;;1.20;;
69551;SDS011;63774;45.292;11.784;2023-07-22T01:42:38;1.70;;;1.00;;
69551;SDS011;63774;45.292;11.784;2023-07-22T01:45:05;1.80;;;1.30;;
69551;SDS011;63774;45.292;11.784;2023-07-22T01:47:34;1.70;;;0.90;;
69551;SDS011;63774;45.292;11.784;2023-07-22T01:50:01;1.90;;;1.20;;
69551;SDS011;63774;45.292;11.784;2023-07-22T01:52:27;1.70;;;1.00;;
69551;SDS011;63774;45.292;11.784;2023-07-22T01:54:52;2.30;;;1.20;;
69551;SDS011;63774;45.292;11.784;2023-07-22T01:57:18;2.10;;;0.90;;
69551;SDS011;63774;45.292;11.784;2023-07-22T01:59:43;1.20;;;0.80;;
69551;SDS011;63774;45.292;11.784;2023-07-22T02:02:09;2.60;;;1.20;;
69551;SDS011;63774;45.292;11.784;2023-07-22T02:04:34;1.90;;;1.00;;
69551;SDS011;63774;45.292;11.784;2023-07-22T02:07:00;1.50;;;1.00;;
69551;SDS011;63774;45.292;11.784;2023-07-22T02:09:25;2.40;;;1.20;;
69551;SDS011;63774;45.292;11.784;2023-07-22T02:11:50;2.00;;;1.10;;
69551;SDS011;63774;45.292;11.784;2023-07-22T02:14:16;1.90;;;1.00;;
69551;SDS011;63774;45.292;11.784;2023-07-22T02:16:41;1.70;;;1.00;;
69551;SDS011;63774;45.292;11.784;2023-07-22T02:19:07;1.30;;;0.90;;
69551;SDS011;63774;45.292;11.784;2023-07-22T02:21:32;1.50;;;1.00;;
69551;SDS011;63774;45.292;11.784;2023-07-22T02:23:57;3.00;;;1.10;;
69551;SDS011;63774;45.292;11.784;2023-07-22T02:26:23;1.60;;;1.00;;
69551;SDS011;63774;45.292;11.784;2023-07-22T02:28:49;1.90;;;1.20;;
69551;SDS011;63774;45.292;11.784;2023-07-22T02:31:14;2.70;;;1.30;;
69551;SDS011;63774;45.292;11.784;2023-07-22T02:33:39;1.80;;;0.90;;
69551;SDS011;63774;45.292;11.784;2023-07-22T02:36:05;2.40;;;1.00;;
69551;SDS011;63774;45.292;11.784;2023-07-22T02:38:31;2.30;;;1.10;;
69551;SDS011;63774;45.292;11.784;2023-07-22T02:41:06;1.40;;;1.20;;
69551;SDS011;63774;45.292;11.784;2023-07-22T02:43:35;1.70;;;1.00;;
69551;SDS011;63774;45.292;11.784;2023-07-22T02:46:04;1.90;;;1.20;;
69551;SDS011;63774;45.292;11.784;2023-07-22T02:48:32;1.60;;;1.10;;
69551;SDS011;63774;45.292;11.784;2023-07-22T02:51:04;1.80;;;1.10;;
69551;SDS011;63774;45.292;11.784;2023-07-22T02:53:31;1.50;;;0.90;;
69551;SDS011;63774;45.292;11.784;2023-07-22T02:56:01;2.30;;;1.20;;
69551;SDS011;63774;45.292;11.784;2023-07-22T02:58:27;1.50;;;1.00;;
69551;SDS011;63774;45.292;11.784;2023-07-22T03:00:53;1.90;;;1.20;;
69551;SDS011;63774;45.292;11.784;2023-07-22T03:03:18;2.00;;;1.10;;
69551;SDS011;63774;45.292;11.784;2023-07-22T03:05:44;2.00;;;1.50;;
69551;SDS011;63774;45.292;11.784;2023-07-22T03:08:10;2.60;;;1.20;;
69551;SDS011;63774;45.292;11.784;2023-07-22T03:10:35;1.90;;;1.10;;
69551;SDS011;63774;45.292;11.784;2023-07-22T03:13:01;1.90;;;1.10;;
69551;SDS011;63774;45.292;11.784;2023-07-22T03:15:28;2.00;;;1.00;;
69551;SDS011;63774;45.292;11.784;2023-07-22T03:17:57;2.40;;;1.30;;
69551;SDS011;63774;45.292;11.784;2023-07-22T03:20:24;1.80;;;1.10;;
69551;SDS011;63774;45.292;11.784;2023-07-22T03:22:50;3.00;;;1.50;;
69551;SDS011;63774;45.292;11.784;2023-07-22T03:25:16;2.00;;;1.20;;
69551;SDS011;63774;45.292;11.784;2023-07-22T03:27:42;1.90;;;1.30;;
69551;SDS011;63774;45.292;11.784;2023-07-22T03:30:10;1.70;;;1.20;;
69551;SDS011;63774;45.292;11.784;2023-07-22T03:32:40;2.30;;;1.30;;
69551;SDS011;63774;45.292;11.784;2023-07-22T03:35:10;2.30;;;1.20;;
69551;SDS011;63774;45.292;11.784;2023-07-22T03:37:36;1.90;;;1.10;;
69551;SDS011;63774;45.292;11.784;2023-07-22T03:40:02;1.90;;;1.10;;
69551;SDS011;63774;45.292;11.784;2023-07-22T03:42:32;1.70;;;1.00;;
69551;SDS011;63774;45.292;11.784;2023-07-22T03:44:59;2.00;;;1.10;;
69551;SDS011;63774;45.292;11.784;2023-07-22T03:47:24;2.00;;;1.20;;
69551;SDS011;63774;45.292;11.784;2023-07-22T03:49:49;2.00;;;1.10;;
69551;SDS011;63774;45.292;11.784;2023-07-22T03:52:15;2.10;;;1.20;;
69551;SDS011;63774;45.292;11.784;2023-07-22T03:54:43;1.60;;;1.20;;
69551;SDS011;63774;45.292;11.784;2023-07-22T03:57:09;2.80;;;1.30;;
69551;SDS011;63774;45.292;11.784;2023-07-22T03:59:35;1.90;;;1.10;;
69551;SDS011;63774;45.292;11.784;2023-07-22T04:02:00;2.10;;;1.20;;
69551;SDS011;63774;45.292;11.784;2023-07-22T04:04:26;2.70;;;1.30;;
69551;SDS011;63774;45.292;11.784;2023-07-22T04:06:51;1.90;;;1.30;;
69551;SDS011;63774;45.292;11.784;2023-07-22T04:09:17;2.30;;;1.20;;
69551;SDS011;63774;45.292;11.784;2023-07-22T04:11:42;2.30;;;1.40;;
69551;SDS011;63774;45.292;11.784;2023-07-22T04:14:07;2.30;;;1.10;;
69551;SDS011;63774;45.292;11.784;2023-07-22T04:16:33;1.70;;;1.20;;
69551;SDS011;63774;45.292;11.784;2023-07-22T04:18:58;2.40;;;1.30;;
69551;SDS011;63774;45.292;11.784;2023-07-22T04:21:23;1.90;;;1.30;;
69551;SDS011;63774;45.292;11.784;2023-07-22T04:23:49;1.90;;;1.20;;
69551;SDS011;63774;45.292;11.784;2023-07-22T04:26:14;2.00;;;1.20;;
69551;SDS011;63774;45.292;11.784;2023-07-22T04:28:40;2.40;;;1.40;;
69551;SDS011;63774;45.292;11.784;2023-07-22T04:31:05;3.20;;;1.50;;
69551;SDS011;63774;45.292;11.784;2023-07-22T04:33:31;3.60;;;1.50;;
69551;SDS011;63774;45.292;11.784;2023-07-22T04:35:57;1.70;;;1.30;;
69551;SDS011;63774;45.292;11.784;2023-07-22T04:38:24;3.10;;;1.30;;
69551;SDS011;63774;45.292;11.784;2023-07-22T04:40:50;1.80;;;1.40;;
69551;SDS011;63774;45.292;11.784;2023-07-22T04:43:16;2.80;;;1.30;;
69551;SDS011;63774;45.292;11.784;2023-07-22T04:45:44;2.50;;;1.40;;
69551;SDS011;63774;45.292;11.784;2023-07-22T04:48:10;2.40;;;1.40;;
69551;SDS011;63774;45.292;11.784;2023-07-22T04:50:36;4.20;;;1.40;;
69551;SDS011;63774;45.292;11.784;2023-07-22T04:53:02;1.90;;;1.30;;
69551;SDS011;63774;45.292;11.784;2023-07-22T04:55:28;1.80;;;1.30;;
69551;SDS011;63774;45.292;11.784;2023-07-22T04:57:55;2.70;;;1.40;;
69551;SDS011;63774;45.292;11.784;2023-07-22T05:00:20;2.20;;;1.10;;
69551;SDS011;63774;45.292;11.784;2023-07-22T05:02:47;2.50;;;1.30;;
69551;SDS011;63774;45.292;11.784;2023-07-22T05:05:13;1.80;;;1.20;;
69551;SDS011;63774;45.292;11.784;2023-07-22T05:07:38;1.60;;;1.20;;
69551;SDS011;63774;45.292;11.784;2023-07-22T05:10:04;2.10;;;1.40;;
69551;SDS011;63774;45.292;11.784;2023-07-22T05:12:32;2.60;;;1.40;;
69551;SDS011;63774;45.292;11.784;2023-07-22T05:14:57;2.50;;;1.30;;
69551;SDS011;63774;45.292;11.784;2023-07-22T05:17:22;2.00;;;1.10;;
69551;SDS011;63774;45.292;11.784;2023-07-22T05:19:48;1.90;;;1.30;;
69551;SDS011;63774;45.292;11.784;2023-07-22T05:22:14;3.10;;;1.40;;
69551;SDS011;63774;45.292;11.784;2023-07-22T05:24:40;1.90;;;1.10;;
69551;SDS011;63774;45.292;11.784;2023-07-22T05:27:05;2.00;;;1.30;;
69551;SDS011;63774;45.292;11.784;2023-07-22T05:29:31;2.20;;;1.30;;
69551;SDS011;63774;45.292;11.784;2023-07-22T05:31:56;1.80;;;1.30;;
69551;SDS011;63774;45.292;11.784;2023-07-22T05:34:21;2.00;;;1.30;;
69551;SDS011;63774;45.292;11.784;2023-07-22T05:36:47;2.50;;;1.60;;
69551;SDS011;63774;45.292;11.784;2023-07-22T05:39:12;3.40;;;1.80;;
69551;SDS011;63774;45.292;11.784;2023-07-22T05:41:37;2.50;;;1.70;;
69551;SDS011;63774;45.292;11.784;2023-07-22T05:44:03;2.60;;;1.40;;
69551;SDS011;63774;45.292;11.784;2023-07-22T05:46:28;2.60;;;1.50;;
69551;SDS011;63774;45.292;11.784;2023-07-22T05:48:54;2.40;;;1.70;;
69551;SDS011;63774;45.292;11.784;2023-07-22T05:51:19;2.70;;;1.70;;
69551;SDS011;63774;45.292;11.784;2023-07-22T05:53:45;2.80;;;1.80;;
69551;SDS011;63774;45.292;11.784;2023-07-22T05:56:10;3.40;;;1.80;;
69551;SDS011;63774;45.292;11.784;2023-07-22T05:58:35;2.90;;;1.80;;
69551;SDS011;63774;45.292;11.784;2023-07-22T06:01:01;2.90;;;1.60;;
69551;SDS011;63774;45.292;11.784;2023-07-22T06:03:26;4.30;;;1.90;;
69551;SDS011;63774;45.292;11.784;2023-07-22T06:05:53;3.50;;;1.80;;
69551;SDS011;63774;45.292;11.784;2023-07-22T06:08:18;3.00;;;1.80;;
69551;SDS011;63774;45.292;11.784;2023-07-22T06:10:47;3.10;;;1.60;;
69551;SDS011;63774;45.292;11.784;2023-07-22T06:13:12;2.80;;;1.70;;
69551;SDS011;63774;45.292;11.784;2023-07-22T06:15:37;3.20;;;1.80;;
69551;SDS011;63774;45.292;11.784;2023-07-22T06:18:03;2.40;;;1.80;;
69551;SDS011;63774;45.292;11.784;2023-07-22T06:20:32;2.80;;;1.70;;
69551;SDS011;63774;45.292;11.784;2023-07-22T06:22:58;2.80;;;1.70;;
69551;SDS011;63774;45.292;11.784;2023-07-22T06:25:23;4.10;;;2.10;;
69551;SDS011;63774;45.292;11.784;2023-07-22T06:27:49;3.10;;;1.90;;
69551;SDS011;63774;45.292;11.784;2023-07-22T06:30:14;4.30;;;1.80;;
69551;SDS011;63774;45.292;11.784;2023-07-22T06:32:40;3.00;;;1.80;;
69551;SDS011;63774;45.292;11.784;2023-07-22T06:35:06;2.10;;;1.60;;
69551;SDS011;63774;45.292;11.784;2023-07-22T06:37:32;2.50;;;1.80;;
69551;SDS011;63774;45.292;11.784;2023-07-22T06:39:59;3.80;;;1.70;;
69551;SDS011;63774;45.292;11.784;2023-07-22T06:42:24;4.20;;;1.80;;
69551;SDS011;63774;45.292;11.784;2023-07-22T06:44:51;2.40;;;1.60;;
69551;SDS011;63774;45.292;11.784;2023-07-22T06:47:16;2.90;;;1.90;;
69551;SDS011;63774;45.292;11.784;2023-07-22T06:49:42;3.60;;;1.90;;
69551;SDS011;63774;45.292;11.784;2023-07-22T06:52:07;3.80;;;2.00;;
69551;SDS011;63774;45.292;11.784;2023-07-22T06:54:33;2.50;;;1.80;;
69551;SDS011;63774;45.292;11.784;2023-07-22T06:56:59;3.20;;;1.80;;
69551;SDS011;63774;45.292;11.784;2023-07-22T06:59:25;2.60;;;1.50;;
69551;SDS011;63774;45.292;11.784;2023-07-22T07:01:51;4.40;;;1.90;;
69551;SDS011;63774;45.292;11.784;2023-07-22T07:04:17;3.00;;;2.00;;
69551;SDS011;63774;45.292;11.784;2023-07-22T07:06:42;3.30;;;1.80;;
69551;SDS011;63774;45.292;11.784;2023-07-22T07:09:07;3.30;;;1.90;;
69551;SDS011;63774;45.292;11.784;2023-07-22T07:11:33;2.90;;;1.70;;
69551;SDS011;63774;45.292;11.784;2023-07-22T07:13:58;3.50;;;1.80;;
69551;SDS011;63774;45.292;11.784;2023-07-22T07:18:56;2.90;;;1.90;;
69551;SDS011;63774;45.292;11.784;2023-07-22T07:21:22;3.20;;;2.00;;
69551;SDS011;63774;45.292;11.784;2023-07-22T07:23:49;3.20;;;2.00;;
69551;SDS011;63774;45.292;11.784;2023-07-22T07:26:15;2.80;;;1.70;;
69551;SDS011;63774;45.292;11.784;2023-07-22T07:28:41;2.60;;;1.80;;
69551;SDS011;63774;45.292;11.784;2023-07-22T07:31:06;2.40;;;1.80;;
69551;SDS011;63774;45.292;11.784;2023-07-22T07:33:32;3.00;;;2.00;;
69551;SDS011;63774;45.292;11.784;2023-07-22T07:35:58;2.40;;;1.70;;
69551;SDS011;63774;45.292;11.784;2023-07-22T07:38:24;4.10;;;2.00;;
69551;SDS011;63774;45.292;11.784;2023-07-22T07:40:53;3.20;;;1.80;;
69551;SDS011;63774;45.292;11.784;2023-07-22T07:43:20;5.30;;;2.30;;
69551;SDS011;63774;45.292;11.784;2023-07-22T07:45:46;4.30;;;2.30;;
69551;SDS011;63774;45.292;11.784;2023-07-22T07:48:11;2.40;;;1.80;;
69551;SDS011;63774;45.292;11.784;2023-07-22T07:50:37;3.00;;;2.10;;
69551;SDS011;63774;45.292;11.784;2023-07-22T07:53:02;3.60;;;1.90;;
69551;SDS011;63774;45.292;11.784;2023-07-22T07:55:28;3.30;;;1.70;;
69551;SDS011;63774;45.292;11.784;2023-07-22T07:57:53;3.90;;;2.30;;
69551;SDS011;63774;45.292;11.784;2023-07-22T08:00:19;3.80;;;2.10;;
69551;SDS011;63774;45.292;11.784;2023-07-22T08:02:46;3.90;;;1.80;;
69551;SDS011;63774;45.292;11.784;2023-07-22T08:05:11;2.40;;;1.70;;
69551;SDS011;63774;45.292;11.784;2023-07-22T08:07:37;3.90;;;1.90;;
69551;SDS011;63774;45.292;11.784;2023-07-22T08:10:04;2.90;;;2.00;;
69551;SDS011;63774;45.292;11.784;2023-07-22T08:12:32;2.80;;;1.80;;
69551;SDS011;63774;45.292;11.784;2023-07-22T08:14:58;4.40;;;1.90;;
69551;SDS011;63774;45.292;11.784;2023-07-22T08:17:24;2.70;;;1.70;;
69551;SDS011;63774;45.292;11.784;2023-07-22T08:19:50;4.20;;;2.00;;
69551;SDS011;63774;45.292;11.784;2023-07-22T08:22:15;3.60;;;1.90;;
69551;SDS011;63774;45.292;11.784;2023-07-22T08:24:41;3.20;;;2.10;;
69551;SDS011;63774;45.292;11.784;2023-07-22T08:27:07;2.30;;;1.70;;
69551;SDS011;63774;45.292;11.784;2023-07-22T08:29:32;3.30;;;2.00;;
69551;SDS011;63774;45.292;11.784;2023-07-22T08:31:58;3.50;;;2.30;;
69551;SDS011;63774;45.292;11.784;2023-07-22T08:34:23;3.00;;;1.90;;
69551;SDS011;63774;45.292;11.784;2023-07-22T08:36:49;2.80;;;1.90;;
69551;SDS011;63774;45.292;11.784;2023-07-22T08:39:14;3.10;;;2.10;;
69551;SDS011;63774;45.292;11.784;2023-07-22T08:41:40;2.70;;;1.90;;
69551;SDS011;63774;45.292;11.784;2023-07-22T08:44:09;3.10;;;1.70;;
69551;SDS011;63774;45.292;11.784;2023-07-22T08:46:37;2.80;;;2.00;;
69551;SDS011;63774;45.292;11.784;2023-07-22T08:49:04;3.20;;;1.80;;
69551;SDS011;63774;45.292;11.784;2023-07-22T08:51:30;3.30;;;1.80;;
69551;SDS011;63774;45.292;11.784;2023-07-22T08:53:57;3.60;;;1.90;;
69551;SDS011;63774;45.292;11.784;2023-07-22T08:56:24;3.20;;;2.10;;
69551;SDS011;63774;45.292;11.784;2023-07-22T08:58:51;2.40;;;1.80;;
69551;SDS011;63774;45.292;11.784;2023-07-22T09:01:17;3.70;;;1.90;;
69551;SDS011;63774;45.292;11.784;2023-07-22T09:03:43;3.00;;;2.00;;
69551;SDS011;63774;45.292;11.784;2023-07-22T09:06:09;2.00;;;1.50;;
69551;SDS011;63774;45.292;11.784;2023-07-22T09:08:36;3.10;;;2.00;;
69551;SDS011;63774;45.292;11.784;2023-07-22T09:11:03;2.70;;;2.00;;
69551;SDS011;63774;45.292;11.784;2023-07-22T09:13:29;4.40;;;2.00;;
69551;SDS011;63774;45.292;11.784;2023-07-22T09:15:58;2.60;;;1.60;;
69551;SDS011;63774;45.292;11.784;2023-07-22T09:18:24;3.60;;;2.20;;
69551;SDS011;63774;45.292;11.784;2023-07-22T09:20:51;3.30;;;1.90;;
69551;SDS011;63774;45.292;11.784;2023-07-22T09:23:16;2.70;;;1.80;;
69551;SDS011;63774;45.292;11.784;2023-07-22T09:25:42;3.70;;;1.80;;
69551;SDS011;63774;45.292;11.784;2023-07-22T09:28:08;3.30;;;2.00;;
69551;SDS011;63774;45.292;11.784;2023-07-22T09:30:36;3.00;;;2.00;;
69551;SDS011;63774;45.292;11.784;2023-07-22T09:33:20;4.70;;;2.10;;
69551;SDS011;63774;45.292;11.784;2023-07-22T09:35:47;2.90;;;1.80;;
69551;SDS011;63774;45.292;11.784;2023-07-22T09:38:14;3.20;;;1.80;;
69551;SDS011;63774;45.292;11.784;2023-07-22T09:40:42;3.50;;;2.10;;
69551;SDS011;63774;45.292;11.784;2023-07-22T09:43:11;3.90;;;1.80;;
69551;SDS011;63774;45.292;11.784;2023-07-22T09:45:39;2.70;;;1.70;;
69551;SDS011;63774;45.292;11.784;2023-07-22T09:48:05;2.90;;;2.00;;
69551;SDS011;63774;45.292;11.784;2023-07-22T09:50:33;4.70;;;1.90;;
69551;SDS011;63774;45.292;11.784;2023-07-22T09:52:58;2.30;;;1.70;;
69551;SDS011;63774;45.292;11.784;2023-07-22T09:55:26;4.40;;;2.20;;
69551;SDS011;63774;45.292;11.784;2023-07-22T10:00:55;4.00;;;2.20;;
69551;SDS011;63774;45.292;11.784;2023-07-22T10:03:15;3.50;;;1.90;;
69551;SDS011;63774;45.292;11.784;2023-07-22T10:05:44;3.10;;;1.90;;
69551;SDS011;63774;45.292;11.784;2023-07-22T10:08:13;4.10;;;2.30;;
69551;SDS011;63774;45.292;11.784;2023-07-22T10:10:43;4.50;;;2.10;;
69551;SDS011;63774;45.292;11.784;2023-07-22T10:13:09;3.50;;;2.10;;
69551;SDS011;63774;45.292;11.784;2023-07-22T10:15:36;2.60;;;1.90;;
69551;SDS011;63774;45.292;11.784;2023-07-22T10:18:02;2.70;;;1.60;;
69551;SDS011;63774;45.292;11.784;2023-07-22T10:20:30;2.70;;;1.90;;
69551;SDS011;63774;45.292;11.784;2023-07-22T10:22:56;3.00;;;1.80;;
69551;SDS011;63774;45.292;11.784;2023-07-22T10:25:21;3.20;;;2.10;;
69551;SDS011;63774;45.292;11.784;2023-07-22T10:27:48;4.10;;;2.30;;
69551;SDS011;63774;45.292;11.784;2023-07-22T10:30:15;4.70;;;1.80;;
69551;SDS011;63774;45.292;11.784;2023-07-22T10:35:23;3.30;;;1.90;;
69551;SDS011;63774;45.292;11.784;2023-07-22T10:38:14;3.30;;;2.50;;
69551;SDS011;63774;45.292;11.784;2023-07-22T10:40:50;3.90;;;2.30;;
69551;SDS011;63774;45.292;11.784;2023-07-22T10:43:18;3.80;;;2.10;;
69551;SDS011;63774;45.292;11.784;2023-07-22T10:45:58;4.20;;;2.40;;
69551;SDS011;63774;45.292;11.784;2023-07-22T10:48:34;3.70;;;2.00;;
69551;SDS011;63774;45.292;11.784;2023-07-22T10:51:10;2.60;;;2.10;;
69551;SDS011;63774;45.292;11.784;2023-07-22T10:53:40;3.40;;;2.20;;
69551;SDS011;63774;45.292;11.784;2023-07-22T10:56:16;3.40;;;2.10;;
69551;SDS011;63774;45.292;11.784;2023-07-22T11:06:39;3.40;;;2.20;;
69551;SDS011;63774;45.292;11.784;2023-07-22T11:12:08;4.00;;;2.50;;
69551;SDS011;63774;45.292;11.784;2023-07-22T11:14:45;3.90;;;2.20;;
69551;SDS011;63774;45.292;11.784;2023-07-22T11:17:13;3.60;;;2.10;;
69551;SDS011;63774;45.292;11.784;2023-07-22T11:19:39;3.50;;;2.00;;
69551;SDS011;63774;45.292;11.784;2023-07-22T11:22:05;4.30;;;2.10;;
69551;SDS011;63774;45.292;11.784;2023-07-22T11:24:34;3.80;;;2.00;;
69551;SDS011;63774;45.292;11.784;2023-07-22T11:27:02;4.70;;;2.50;;
69551;SDS011;63774;45.292;11.784;2023-07-22T11:29:30;3.60;;;2.20;;
69551;SDS011;63774;45.292;11.784;2023-07-22T11:31:56;3.80;;;2.20;;
69551;SDS011;63774;45.292;11.784;2023-07-22T11:34:23;3.30;;;2.20;;
69551;SDS011;63774;45.292;11.784;2023-07-22T11:36:50;3.20;;;2.30;;
69551;SDS011;63774;45.292;11.784;2023-07-22T11:39:17;5.90;;;2.10;;
69551;SDS011;63774;45.292;11.784;2023-07-22T11:41:44;2.90;;;2.30;;
69551;SDS011;63774;45.292;11.784;2023-07-22T11:44:11;3.90;;;2.40;;
69551;SDS011;63774;45.292;11.784;2023-07-22T11:52:00;2.80;;;2.10;;
69551;SDS011;63774;45.292;11.784;2023-07-22T11:54:33;3.50;;;2.10;;
69551;SDS011;63774;45.292;11.784;2023-07-22T11:59:47;3.20;;;2.20;;
69551;SDS011;63774;45.292;11.784;2023-07-22T12:02:17;3.00;;;2.10;;
69551;SDS011;63774;45.292;11.784;2023-07-22T12:04:51;3.00;;;2.00;;
69551;SDS011;63774;45.292;11.784;2023-07-22T12:07:25;3.80;;;2.20;;
69551;SDS011;63774;45.292;11.784;2023-07-22T12:09:52;4.70;;;2.50;;
69551;SDS011;63774;45.292;11.784;2023-07-22T12:12:18;3.20;;;2.30;;
69551;SDS011;63774;45.292;11.784;2023-07-22T12:14:44;3.90;;;1.90;;
69551;SDS011;63774;45.292;11.784;2023-07-22T12:17:09;2.70;;;1.90;;
69551;SDS011;63774;45.292;11.784;2023-07-22T12:19:35;3.10;;;2.20;;
69551;SDS011;63774;45.292;11.784;2023-07-22T12:22:00;4.00;;;2.30;;
69551;SDS011;63774;45.292;11.784;2023-07-22T12:24:27;3.10;;;2.20;;
69551;SDS011;63774;45.292;11.784;2023-07-22T12:26:53;3.60;;;2.10;;
69551;SDS011;63774;45.292;11.784;2023-07-22T12:29:18;4.60;;;2.30;;
69551;SDS011;63774;45.292;11.784;2023-07-22T12:31:44;3.80;;;2.00;;
69551;SDS011;63774;45.292;11.784;2023-07-22T12:34:10;3.50;;;2.10;;
69551;SDS011;63774;45.292;11.784;2023-07-22T12:36:35;2.90;;;2.10;;
69551;SDS011;63774;45.292;11.784;2023-07-22T12:39:00;3.60;;;2.30;;
69551;SDS011;63774;45.292;11.784;2023-07-22T12:41:26;3.50;;;1.90;;
69551;SDS011;63774;45.292;11.784;2023-07-22T12:43:51;4.00;;;1.50;;
69551;SDS011;63774;45.292;11.784;2023-07-22T12:46:17;3.00;;;1.90;;
69551;SDS011;63774;45.292;11.784;2023-07-22T12:48:42;3.60;;;2.00;;
69551;SDS011;63774;45.292;11.784;2023-07-22T12:51:08;3.30;;;1.80;;
69551;SDS011;63774;45.292;11.784;2023-07-22T12:53:34;3.00;;;1.90;;
69551;SDS011;63774;45.292;11.784;2023-07-22T12:56:00;4.70;;;2.10;;
69551;SDS011;63774;45.292;11.784;2023-07-22T12:58:28;3.50;;;2.00;;
69551;SDS011;63774;45.292;11.784;2023-07-22T13:00:53;2.80;;;1.80;;
69551;SDS011;63774;45.292;11.784;2023-07-22T13:03:19;2.40;;;1.70;;
69551;SDS011;63774;45.292;11.784;2023-07-22T13:05:44;3.30;;;1.90;;
69551;SDS011;63774;45.292;11.784;2023-07-22T13:08:10;3.20;;;1.90;;
69551;SDS011;63774;45.292;11.784;2023-07-22T13:10:35;3.00;;;2.00;;
69551;SDS011;63774;45.292;11.784;2023-07-22T13:13:03;3.80;;;1.90;;
69551;SDS011;63774;45.292;11.784;2023-07-22T13:15:29;3.50;;;1.80;;
69551;SDS011;63774;45.292;11.784;2023-07-22T13:17:54;3.10;;;1.90;;
69551;SDS011;63774;45.292;11.784;2023-07-22T13:20:20;2.80;;;2.00;;
69551;SDS011;63774;45.292;11.784;2023-07-22T13:22:45;3.70;;;1.90;;
69551;SDS011;63774;45.292;11.784;2023-07-22T13:25:11;3.60;;;1.80;;
69551;SDS011;63774;45.292;11.784;2023-07-22T13:27:36;2.40;;;1.70;;
69551;SDS011;63774;45.292;11.784;2023-07-22T13:30:05;2.40;;;1.60;;
69551;SDS011;63774;45.292;11.784;2023-07-22T13:32:33;3.00;;;1.80;;
69551;SDS011;63774;45.292;11.784;2023-07-22T13:34:58;3.40;;;1.50;;
69551;SDS011;63774;45.292;11.784;2023-07-22T13:37:24;3.50;;;2.10;;
69551;SDS011;63774;45.292;11.784;2023-07-22T13:39:49;3.00;;;1.70;;
69551;SDS011;63774;45.292;11.784;2023-07-22T13:42:14;3.20;;;1.70;;
69551;SDS011;63774;45.292;11.784;2023-07-22T13:44:40;2.50;;;1.50;;
69551;SDS011;63774;45.292;11.784;2023-07-22T13:47:05;2.90;;;1.70;;
69551;SDS011;63774;45.292;11.784;2023-07-22T13:49:31;3.30;;;2.00;;
69551;SDS011;63774;45.292;11.784;2023-07-22T13:51:56;3.20;;;1.70;;
69551;SDS011;63774;45.292;11.784;2023-07-22T13:54:22;3.40;;;1.80;;
69551;SDS011;63774;45.292;11.784;2023-07-22T13:56:47;2.30;;;1.70;;
69551;SDS011;63774;45.292;11.784;2023-07-22T13:59:13;2.30;;;1.70;;
69551;SDS011;63774;45.292;11.784;2023-07-22T14:01:39;3.20;;;1.80;;
69551;SDS011;63774;45.292;11.784;2023-07-22T14:04:04;2.80;;;1.60;;
69551;SDS011;63774;45.292;11.784;2023-07-22T14:06:30;2.60;;;1.60;;
69551;SDS011;63774;45.292;11.784;2023-07-22T14:08:56;2.70;;;1.80;;
69551;SDS011;63774;45.292;11.784;2023-07-22T14:11:21;3.60;;;1.90;;
69551;SDS011;63774;45.292;11.784;2023-07-22T14:13:47;2.90;;;1.40;;
69551;SDS011;63774;45.292;11.784;2023-07-22T14:16:12;2.70;;;1.80;;
69551;SDS011;63774;45.292;11.784;2023-07-22T14:18:38;3.20;;;2.10;;
69551;SDS011;63774;45.292;11.784;2023-07-22T14:21:03;3.50;;;2.10;;
69551;SDS011;63774;45.292;11.784;2023-07-22T14:23:29;3.00;;;1.90;;
69551;SDS011;63774;45.292;11.784;2023-07-22T14:25:54;4.40;;;2.20;;
69551;SDS011;63774;45.292;11.784;2023-07-22T14:28:23;3.90;;;2.50;;
69551;SDS011;63774;45.292;11.784;2023-07-22T14:30:48;3.80;;;2.40;;
69551;SDS011;63774;45.292;11.784;2023-07-22T14:33:14;5.60;;;3.00;;
69551;SDS011;63774;45.292;11.784;2023-07-22T14:35:39;3.50;;;2.50;;
69551;SDS011;63774;45.292;11.784;2023-07-22T14:38:05;3.80;;;2.40;;
69551;SDS011;63774;45.292;11.784;2023-07-22T14:40:31;4.20;;;2.50;;
69551;SDS011;63774;45.292;11.784;2023-07-22T14:42:56;3.00;;;2.30;;
69551;SDS011;63774;45.292;11.784;2023-07-22T14:45:22;3.50;;;1.80;;
69551;SDS011;63774;45.292;11.784;2023-07-22T14:47:47;3.20;;;2.30;;
69551;SDS011;63774;45.292;11.784;2023-07-22T14:50:13;3.50;;;2.20;;
69551;SDS011;63774;45.292;11.784;2023-07-22T14:52:39;4.30;;;2.20;;
69551;SDS011;63774;45.292;11.784;2023-07-22T14:55:05;4.80;;;2.10;;